Time;durP1;ratioP1;P1;durP2;ratioP2;P2;SDS_P1;SDS_P2;PMS_P1;PMS_P2;Temp;Humidity;BMP_temperature;BMP_pressure;BME280_temperature;BME280_humidity;BME280_pressure;Samples;Min_cycle;Max_cycle;Signal;HPM_P1;HPM_P2
2023/10/20 00:00:43;;;;;;;6.72;6.13;;;;;;;;;;8279340;28;20094;-73
2023/10/20 00:04:44;;;;;;;7.65;6.80;;;;;;;;;;8265707;28;20025;-73
2023/10/20 00:08:45;;;;;;;9.90;7.10;;;;;;;;;;8280230;28;20033;-73
2023/10/20 00:12:45;;;;;;;7.85;6.78;;;;;;;;;;8277423;28;20025;-74
2023/10/20 00:16:45;;;;;;;9.38;7.90;;;;;;;;;;8278461;28;20029;-73
2023/10/20 00:20:46;;;;;;;13.63;8.73;;;;;;;;;;8277833;28;20919;-73
2023/10/20 00:24:46;;;;;;;11.15;9.27;;;;;;;;;;8285357;28;20031;-73
2023/10/20 00:28:46;;;;;;;12.50;10.38;;;;;;;;;;8285473;28;20029;-73
2023/10/20 00:32:46;;;;;;;12.25;9.95;;;;;;;;;;8284022;28;20044;-73
2023/10/20 00:36:46;;;;;;;12.43;10.23;;;;;;;;;;8284205;28;20047;-73
2023/10/20 00:40:47;;;;;;;9.70;8.70;;;;;;;;;;8267490;28;20021;-73
2023/10/20 00:44:47;;;;;;;11.88;8.73;;;;;;;;;;8284685;28;20029;-72
2023/10/20 00:48:48;;;;;;;11.20;8.32;;;;;;;;;;8271459;28;20038;-73
2023/10/20 00:52:52;;;;;;;9.93;8.63;;;;;;;;;;8281721;28;20591;-73
2023/10/20 00:56:53;;;;;;;9.13;8.23;;;;;;;;;;8281353;28;20033;-73
2023/10/20 01:00:53;;;;;;;13.80;9.68;;;;;;;;;;8262430;28;20897;-73
2023/10/20 01:04:54;;;;;;;10.32;9.27;;;;;;;;;;8280650;28;20134;-73
2023/10/20 01:08:55;;;;;;;9.55;8.65;;;;;;;;;;8281557;28;20017;-73
2023/10/20 01:12:55;;;;;;;10.20;9.20;;;;;;;;;;8281084;28;20032;-73
2023/10/20 01:16:55;;;;;;;11.50;10.32;;;;;;;;;;8282517;28;20045;-73
2023/10/20 01:20:56;;;;;;;11.32;10.00;;;;;;;;;;8280164;28;20072;-73
2023/10/20 01:24:56;;;;;;;15.27;11.98;;;;;;;;;;8280492;28;20159;-73
2023/10/20 01:28:56;;;;;;;11.90;10.70;;;;;;;;;;8264162;28;20191;-72
2023/10/20 01:32:56;;;;;;;12.23;10.00;;;;;;;;;;8278546;28;20037;-73
2023/10/20 01:36:57;;;;;;;14.68;10.50;;;;;;;;;;8282869;28;20029;-72
2023/10/20 01:40:57;;;;;;;12.52;10.45;;;;;;;;;;8278875;28;20084;-73
2023/10/20 01:44:57;;;;;;;11.23;10.00;;;;;;;;;;8279395;28;20032;-72
2023/10/20 01:48:57;;;;;;;13.77;9.18;;;;;;;;;;8279643;28;20694;-72
2023/10/20 01:52:57;;;;;;;11.45;10.15;;;;;;;;;;8279417;28;20046;-73
2023/10/20 01:56:58;;;;;;;9.82;8.18;;;;;;;;;;8279081;28;20021;-73
2023/10/20 02:00:58;;;;;;;11.40;9.10;;;;;;;;;;8280028;28;20103;-73
2023/10/20 02:04:58;;;;;;;9.82;8.60;;;;;;;;;;8264432;28;20035;-73
2023/10/20 02:08:58;;;;;;;11.93;8.98;;;;;;;;;;8278890;28;20029;-73
2023/10/20 02:12:59;;;;;;;9.40;8.43;;;;;;;;;;8276911;28;20111;-72
2023/10/20 02:16:59;;;;;;;11.53;8.70;;;;;;;;;;8277865;28;20044;-73
2023/10/20 02:21:03;;;;;;;8.65;7.28;;;;;;;;;;8265189;28;20283;-73
2023/10/20 02:25:03;;;;;;;8.60;7.53;;;;;;;;;;8278093;28;20099;-73
2023/10/20 02:29:04;;;;;;;8.50;7.70;;;;;;;;;;8277524;28;20029;-73
2023/10/20 02:33:04;;;;;;;8.10;7.30;;;;;;;;;;8276560;28;20498;-73
2023/10/20 02:37:04;;;;;;;9.73;7.65;;;;;;;;;;8279872;28;20310;-73
2023/10/20 02:41:05;;;;;;;7.60;6.93;;;;;;;;;;8278877;28;20040;-73
2023/10/20 02:45:10;;;;;;;9.43;7.45;;;;;;;;;;8278926;28;20058;-73
2023/10/20 02:49:10;;;;;;;8.32;7.57;;;;;;;;;;8279036;28;20140;-73
2023/10/20 02:53:11;;;;;;;8.82;8.00;;;;;;;;;;8260902;28;20051;-73
2023/10/20 02:57:11;;;;;;;9.45;8.43;;;;;;;;;;8277980;28;20588;-73
2023/10/20 03:01:13;;;;;;;9.95;8.93;;;;;;;;;;8279345;28;20044;-73
2023/10/20 03:05:13;;;;;;;8.75;7.85;;;;;;;;;;8264502;28;20044;-73
2023/10/20 03:09:13;;;;;;;9.90;7.78;;;;;;;;;;8280231;28;20021;-73
2023/10/20 03:13:13;;;;;;;12.25;8.63;;;;;;;;;;8279520;28;20024;-73
2023/10/20 03:17:14;;;;;;;9.07;7.50;;;;;;;;;;8279758;28;20025;-73
2023/10/20 03:21:15;;;;;;;9.32;8.43;;;;;;;;;;8279413;28;20044;-72
2023/10/20 03:25:17;;;;;;;10.63;8.02;;;;;;;;;;8280567;28;20915;-73
2023/10/20 03:29:18;;;;;;;8.90;8.00;;;;;;;;;;8277341;28;20400;-73
2023/10/20 03:33:18;;;;;;;8.70;7.78;;;;;;;;;;8278679;28;20106;-73
2023/10/20 03:37:18;;;;;;;8.10;7.22;;;;;;;;;;8281571;28;20029;-73
2023/10/20 03:41:19;;;;;;;12.20;7.55;;;;;;;;;;8279585;28;20029;-73
2023/10/20 03:45:20;;;;;;;8.35;7.55;;;;;;;;;;8282461;28;20025;-73
2023/10/20 03:49:20;;;;;;;559.05;26.33;;;;;;;;;;8280222;28;21110;-73
2023/10/20 03:53:27;;;;;;;382.50;18.52;;;;;;;;;;8279256;28;20084;-73
2023/10/20 03:57:27;;;;;;;793.92;31.77;;;;;;;;;;8271062;28;20029;-72
2023/10/20 04:01:28;;;;;;;777.55;30.35;;;;;;;;;;8285473;28;20041;-73
2023/10/20 04:05:28;;;;;;;750.58;29.45;;;;;;;;;;8285735;28;20144;-73
2023/10/20 04:09:29;;;;;;;1064.53;36.57;;;;;;;;;;8286094;28;20528;-73
2023/10/20 04:13:31;;;;;;;837.22;29.70;;;;;;;;;;8283965;28;20275;-73
2023/10/20 04:17:32;;;;;;;962.75;36.75;;;;;;;;;;8286616;28;20047;-72
2023/10/20 04:21:32;;;;;;;552.00;24.20;;;;;;;;;;8283282;28;20025;-73
2023/10/20 04:25:35;;;;;;;190.60;17.40;;;;;;;;;;8283327;28;20032;-73
2023/10/20 04:29:35;;;;;;;27.25;11.18;;;;;;;;;;8287245;28;20037;-73
2023/10/20 04:54:51;;;;;;;13.25;8.52;;;;;;;;;;8283386;28;20048;-73
2023/10/20 05:07:09;;;;;;;590.63;27.37;;;;;;;;;;8283571;28;20028;-73
2023/10/20 05:11:09;;;;;;;275.45;18.80;;;;;;;;;;8287947;28;20120;-72
2023/10/20 05:15:13;;;;;;;272.33;16.73;;;;;;;;;;8282249;28;20119;-73
2023/10/20 05:19:13;;;;;;;266.90;17.13;;;;;;;;;;8268925;28;20061;-73
2023/10/20 05:23:16;;;;;;;92.40;10.68;;;;;;;;;;8285259;28;20053;-73
2023/10/20 05:27:16;;;;;;;32.60;9.50;;;;;;;;;;8287276;28;20135;-73
2023/10/20 05:31:21;;;;;;;11.23;9.55;;;;;;;;;;8288989;28;20060;-73
2023/10/20 05:35:21;;;;;;;18.30;10.73;;;;;;;;;;8286624;28;20719;-72
2023/10/20 05:39:21;;;;;;;239.60;18.08;;;;;;;;;;8286912;28;20049;-73
2023/10/20 05:43:23;;;;;;;183.05;14.68;;;;;;;;;;8286600;28;20513;-72
2023/10/20 05:47:23;;;;;;;108.35;12.23;;;;;;;;;;8286095;28;20031;-73
2023/10/20 05:51:23;;;;;;;20.92;9.07;;;;;;;;;;8287199;28;20057;-73
2023/10/20 05:55:23;;;;;;;67.88;9.10;;;;;;;;;;8286111;28;20021;-73
2023/10/20 05:59:23;;;;;;;350.45;18.08;;;;;;;;;;8288666;28;20032;-73
2023/10/20 06:03:24;;;;;;;265.77;15.93;;;;;;;;;;8285829;28;20087;-73
2023/10/20 06:07:24;;;;;;;612.58;24.33;;;;;;;;;;8284885;28;20025;-71
2023/10/20 06:11:25;;;;;;;719.95;23.98;;;;;;;;;;8285868;28;20025;-73
2023/10/20 06:15:25;;;;;;;588.95;19.05;;;;;;;;;;8288353;28;20513;-73
2023/10/20 06:19:28;;;;;;;874.42;27.55;;;;;;;;;;8283287;28;20036;-71
2023/10/20 06:23:29;;;;;;;861.50;29.40;;;;;;;;;;8282632;28;20067;-72
2023/10/20 06:27:30;;;;;;;1013.08;34.20;;;;;;;;;;8284254;28;20079;-73
2023/10/20 06:35:33;;;;;;;818.77;30.93;;;;;;;;;;8282190;28;20045;-72
2023/10/20 06:39:34;;;;;;;253.07;14.40;;;;;;;;;;8286627;28;20022;-73
2023/10/20 06:43:34;;;;;;;539.42;21.05;;;;;;;;;;8284651;28;20060;-71
2023/10/20 06:47:34;;;;;;;476.38;20.15;;;;;;;;;;8283821;28;20029;-73
2023/10/20 06:51:35;;;;;;;423.30;19.88;;;;;;;;;;8278585;28;20021;-72
2023/10/20 06:55:40;;;;;;;40.13;7.90;;;;;;;;;;8274136;28;20025;-73
2023/10/20 06:59:40;;;;;;;93.35;9.32;;;;;;;;;;8266138;28;20253;-73
2023/10/20 07:03:40;;;;;;;6.40;5.68;;;;;;;;;;8282675;28;20443;-73
2023/10/20 07:07:41;;;;;;;5.80;5.30;;;;;;;;;;8285680;28;20474;-73
2023/10/20 07:11:41;;;;;;;6.32;5.63;;;;;;;;;;8267569;28;20061;-72
2023/10/20 07:15:42;;;;;;;6.38;4.60;;;;;;;;;;8273445;28;20034;-73
2023/10/20 07:19:43;;;;;;;4.65;4.25;;;;;;;;;;8283099;28;20066;-73
2023/10/20 07:23:43;;;;;;;4.88;4.47;;;;;;;;;;8282112;28;20028;-72
2023/10/20 07:27:43;;;;;;;3.50;3.20;;;;;;;;;;8285373;28;20924;-73
2023/10/20 07:31:47;;;;;;;3.35;3.05;;;;;;;;;;8287742;28;20040;-73
2023/10/20 07:35:47;;;;;;;3.47;3.17;;;;;;;;;;8288647;28;20025;-73
2023/10/20 07:39:47;;;;;;;3.20;2.90;;;;;;;;;;8292868;28;20106;-73
2023/10/20 07:43:48;;;;;;;15.82;3.50;;;;;;;;;;8291070;28;20692;-73
2023/10/20 07:47:48;;;;;;;149.55;6.65;;;;;;;;;;8291017;28;21025;-73
2023/10/20 07:51:48;;;;;;;263.48;8.68;;;;;;;;;;8293864;28;20027;-73
2023/10/20 07:55:49;;;;;;;158.10;6.80;;;;;;;;;;8291853;28;20061;-73
2023/10/20 07:59:49;;;;;;;69.50;5.03;;;;;;;;;;8289476;28;20028;-73
2023/10/20 08:03:49;;;;;;;9.50;2.78;;;;;;;;;;8291239;28;20032;-73
2023/10/20 08:07:49;;;;;;;21.63;3.45;;;;;;;;;;8290548;28;20029;-72
2023/10/20 08:11:50;;;;;;;151.07;7.13;;;;;;;;;;8287246;28;20021;-73
2023/10/20 08:15:50;;;;;;;86.43;4.82;;;;;;;;;;8290588;28;20123;-74
2023/10/20 08:19:50;;;;;;;77.88;5.00;;;;;;;;;;8289349;28;20104;-73
2023/10/20 08:23:50;;;;;;;15.75;3.67;;;;;;;;;;8290620;28;20032;-74
2023/10/20 08:27:50;;;;;;;31.52;4.35;;;;;;;;;;8288961;28;21034;-73
2023/10/20 08:31:51;;;;;;;44.38;4.65;;;;;;;;;;8289681;28;20033;-72
2023/10/20 08:35:51;;;;;;;16.02;4.15;;;;;;;;;;8287130;28;20014;-73
2023/10/20 08:39:54;;;;;;;40.08;5.07;;;;;;;;;;8291139;28;20028;-73
2023/10/20 08:43:55;;;;;;;16.03;4.80;;;;;;;;;;8274991;28;21074;-74
2023/10/20 08:47:55;;;;;;;29.73;5.70;;;;;;;;;;8288075;28;20037;-73
2023/10/20 08:51:57;;;;;;;32.53;6.05;;;;;;;;;;8277781;28;22582;-73
2023/10/20 08:55:57;;;;;;;37.78;6.28;;;;;;;;;;8291042;28;20159;-73
2023/10/20 08:59:57;;;;;;;10.35;5.47;;;;;;;;;;8287276;28;20075;-72
2023/10/20 09:03:59;;;;;;;8.38;5.72;;;;;;;;;;8286661;28;21283;-73
2023/10/20 09:08:00;;;;;;;6.65;5.63;;;;;;;;;;8289585;28;20072;-73
2023/10/20 09:12:00;;;;;;;6.55;5.47;;;;;;;;;;8288342;28;20013;-72
2023/10/20 09:16:07;;;;;;;5.80;5.20;;;;;;;;;;8271258;28;20044;-73
2023/10/20 09:20:11;;;;;;;6.22;5.53;;;;;;;;;;8286986;28;20072;-72
2023/10/20 09:24:14;;;;;;;5.03;4.22;;;;;;;;;;8286287;28;20025;-73
2023/10/20 09:28:14;;;;;;;4.55;4.20;;;;;;;;;;8287081;28;20110;-73
2023/10/20 09:32:14;;;;;;;5.93;5.43;;;;;;;;;;8286409;28;20130;-73
2023/10/20 09:36:15;;;;;;;4.97;4.57;;;;;;;;;;8285956;28;20449;-73
2023/10/20 09:40:15;;;;;;;5.38;4.93;;;;;;;;;;8286493;28;20583;-72
2023/10/20 09:44:25;;;;;;;5.50;4.88;;;;;;;;;;8287000;28;20128;-73
2023/10/20 09:48:26;;;;;;;6.30;5.30;;;;;;;;;;8284497;28;20719;-72
2023/10/20 09:52:28;;;;;;;5.65;5.05;;;;;;;;;;8284403;28;20025;-72
2023/10/20 09:56:29;;;;;;;5.47;4.45;;;;;;;;;;8285908;28;20574;-73
2023/10/20 10:00:34;;;;;;;6.72;4.50;;;;;;;;;;8284156;28;20533;-73
2023/10/20 10:04:38;;;;;;;13.27;4.22;;;;;;;;;;8287507;28;20982;-72
2023/10/20 10:08:43;;;;;;;7.65;6.20;;;;;;;;;;8276151;28;20025;-73
2023/10/20 10:12:55;;;;;;;4.85;4.38;;;;;;;;;;8285158;28;20510;-73
2023/10/20 10:16:56;;;;;;;4.57;4.07;;;;;;;;;;8284682;28;20040;-73
2023/10/20 10:21:01;;;;;;;5.40;3.97;;;;;;;;;;8265730;28;20036;-73
2023/10/20 10:25:01;;;;;;;5.05;4.20;;;;;;;;;;8284146;28;20053;-73
2023/10/20 10:29:01;;;;;;;4.60;4.20;;;;;;;;;;8286804;28;20820;-72
2023/10/20 10:33:01;;;;;;;6.75;4.28;;;;;;;;;;8283217;28;20035;-73
2023/10/20 10:37:02;;;;;;;5.50;3.97;;;;;;;;;;8275123;28;20501;-73
2023/10/20 10:41:02;;;;;;;4.97;4.10;;;;;;;;;;8285289;28;20029;-73
2023/10/20 10:45:12;;;;;;;7.30;4.03;;;;;;;;;;8281576;28;20029;-73
2023/10/20 10:49:13;;;;;;;6.50;4.78;;;;;;;;;;8283691;28;20045;-72
2023/10/20 10:53:14;;;;;;;9.43;5.32;;;;;;;;;;8267190;28;20053;-72
2023/10/20 10:57:16;;;;;;;7.80;5.03;;;;;;;;;;8282147;28;20040;-72
2023/10/20 11:01:16;;;;;;;6.82;4.50;;;;;;;;;;8285430;28;20158;-72
2023/10/20 11:05:17;;;;;;;8.57;5.35;;;;;;;;;;8276296;28;20124;-73
2023/10/20 11:09:22;;;;;;;13.93;7.00;;;;;;;;;;8281943;28;20021;-73
2023/10/20 11:13:22;;;;;;;7.60;4.50;;;;;;;;;;8282885;28;20701;-73
2023/10/20 11:17:23;;;;;;;8.60;5.53;;;;;;;;;;8282730;28;20738;-72
2023/10/20 11:21:23;;;;;;;6.95;4.05;;;;;;;;;;8282603;28;20029;-72
2023/10/20 11:25:24;;;;;;;6.82;3.40;;;;;;;;;;8282699;28;20103;-73
2023/10/20 11:29:25;;;;;;;5.15;4.38;;;;;;;;;;8266830;28;20148;-73
2023/10/20 11:33:26;;;;;;;2.53;2.17;;;;;;;;;;8282716;28;20064;-72
2023/10/20 11:37:26;;;;;;;1.95;1.45;;;;;;;;;;8282221;28;20056;-72
2023/10/20 11:41:26;;;;;;;3.42;1.33;;;;;;;;;;8281380;28;20116;-72
2023/10/20 11:45:26;;;;;;;2.40;1.10;;;;;;;;;;8282168;28;20926;-72
2023/10/20 11:49:26;;;;;;;2.33;1.15;;;;;;;;;;8277594;28;20357;-73
2023/10/20 11:53:27;;;;;;;3.63;3.33;;;;;;;;;;8284011;28;20037;-73
2023/10/20 11:57:27;;;;;;;0.98;0.80;;;;;;;;;;8264039;28;20021;-73
2023/10/20 12:01:27;;;;;;;0.98;0.70;;;;;;;;;;8281325;28;20482;-73
2023/10/20 12:05:27;;;;;;;0.82;0.80;;;;;;;;;;8281248;28;20036;-73
2023/10/20 12:09:28;;;;;;;0.82;0.80;;;;;;;;;;8280918;28;20780;-74
2023/10/20 12:13:28;;;;;;;0.80;0.80;;;;;;;;;;8282796;28;20029;-73
2023/10/20 12:17:28;;;;;;;1.23;0.73;;;;;;;;;;8284053;28;20040;-73
2023/10/20 12:21:29;;;;;;;0.70;0.70;;;;;;;;;;8286355;28;20029;-73
2023/10/20 12:25:29;;;;;;;0.85;0.70;;;;;;;;;;8288026;28;20033;-73
2023/10/20 12:29:30;;;;;;;0.60;0.60;;;;;;;;;;8284087;28;20028;-72
2023/10/20 12:33:31;;;;;;;3.60;0.70;;;;;;;;;;8286754;28;20037;-73
2023/10/20 12:37:32;;;;;;;2.08;0.57;;;;;;;;;;8287818;28;20159;-73
2023/10/20 12:41:32;;;;;;;1.10;0.70;;;;;;;;;;8270934;28;20060;-74
2023/10/20 12:45:32;;;;;;;0.80;0.60;;;;;;;;;;8290532;28;20029;-73
2023/10/20 12:49:32;;;;;;;0.60;0.60;;;;;;;;;;8288431;28;20037;-73
2023/10/20 12:53:33;;;;;;;0.57;0.52;;;;;;;;;;8286208;28;20498;-73
2023/10/20 12:57:33;;;;;;;0.50;0.50;;;;;;;;;;8285844;28;20028;-73
2023/10/20 13:01:33;;;;;;;0.50;0.50;;;;;;;;;;8285511;28;20048;-73
2023/10/20 13:05:33;;;;;;;0.82;0.50;;;;;;;;;;8286795;28;20750;-73
2023/10/20 13:09:33;;;;;;;1.83;0.52;;;;;;;;;;8288757;28;20033;-73
2023/10/20 13:13:33;;;;;;;0.77;0.40;;;;;;;;;;8286436;28;20817;-73
2023/10/20 13:17:34;;;;;;;3.30;0.40;;;;;;;;;;8284931;28;20144;-73
2023/10/20 13:21:34;;;;;;;0.47;0.47;;;;;;;;;;8270719;28;20033;-73
2023/10/20 13:25:35;;;;;;;0.40;0.40;;;;;;;;;;8285992;28;20621;-73
2023/10/20 13:29:35;;;;;;;2.50;0.40;;;;;;;;;;8288041;28;20044;-73
2023/10/20 13:33:35;;;;;;;0.40;0.40;;;;;;;;;;8285424;28;20033;-73
2023/10/20 13:37:36;;;;;;;0.43;0.43;;;;;;;;;;8289124;28;20136;-73
2023/10/20 13:41:36;;;;;;;0.38;0.38;;;;;;;;;;8279572;28;20029;-73
2023/10/20 13:45:37;;;;;;;0.40;0.40;;;;;;;;;;8276018;28;20064;-73
2023/10/20 13:49:37;;;;;;;0.50;0.50;;;;;;;;;;8287245;28;20108;-73
2023/10/20 13:53:38;;;;;;;1.30;0.50;;;;;;;;;;8273543;28;20072;-73
2023/10/20 13:57:38;;;;;;;1.10;0.50;;;;;;;;;;8273784;28;20033;-74
2023/10/20 14:01:38;;;;;;;0.57;0.50;;;;;;;;;;8285890;28;20406;-73
2023/10/20 14:05:39;;;;;;;1.90;0.38;;;;;;;;;;8288610;28;20877;-73
2023/10/20 14:09:39;;;;;;;2.10;0.40;;;;;;;;;;8286223;28;20026;-74
2023/10/20 14:13:39;;;;;;;0.70;0.40;;;;;;;;;;8268715;28;20024;-74
2023/10/20 14:17:39;;;;;;;2.33;0.60;;;;;;;;;;8276224;28;20036;-74
2023/10/20 14:21:39;;;;;;;0.40;0.40;;;;;;;;;;8283455;28;20024;-74
2023/10/20 14:25:39;;;;;;;0.40;0.40;;;;;;;;;;8285954;28;20143;-73
2023/10/20 14:29:40;;;;;;;0.57;0.40;;;;;;;;;;8284210;28;20033;-74
2023/10/20 14:33:40;;;;;;;0.40;0.40;;;;;;;;;;8284994;28;20670;-74
2023/10/20 14:37:40;;;;;;;0.40;0.40;;;;;;;;;;8269165;28;20021;-73
2023/10/20 14:41:40;;;;;;;0.40;0.40;;;;;;;;;;8267456;28;20032;-73
2023/10/20 14:45:40;;;;;;;0.90;0.45;;;;;;;;;;8282745;28;20041;-73
2023/10/20 14:49:41;;;;;;;0.43;0.43;;;;;;;;;;8270462;28;20037;-73
2023/10/20 14:53:41;;;;;;;0.40;0.40;;;;;;;;;;8267964;28;20865;-74
2023/10/20 14:57:41;;;;;;;0.50;0.50;;;;;;;;;;8283319;28;20037;-73
2023/10/20 15:01:42;;;;;;;1.05;0.70;;;;;;;;;;8282537;28;20041;-73
2023/10/20 15:05:42;;;;;;;0.50;0.50;;;;;;;;;;8283762;28;20132;-73
2023/10/20 15:09:43;;;;;;;0.50;0.50;;;;;;;;;;8283097;28;20029;-73
2023/10/20 15:13:43;;;;;;;1.65;0.63;;;;;;;;;;8284130;28;20632;-73
2023/10/20 15:17:43;;;;;;;0.73;0.50;;;;;;;;;;8284335;28;20033;-73
2023/10/20 15:21:44;;;;;;;1.85;0.50;;;;;;;;;;8275151;28;20798;-74
2023/10/20 15:25:44;;;;;;;0.50;0.50;;;;;;;;;;8268721;28;20029;-74
2023/10/20 15:29:44;;;;;;;0.95;0.70;;;;;;;;;;8283757;28;20034;-74
2023/10/20 15:33:44;;;;;;;0.65;0.60;;;;;;;;;;8281553;28;20026;-73
2023/10/20 15:37:44;;;;;;;0.50;0.50;;;;;;;;;;8286369;28;20037;-74
2023/10/20 15:41:44;;;;;;;1.40;0.55;;;;;;;;;;8283684;28;20029;-74
2023/10/20 15:45:45;;;;;;;0.50;0.50;;;;;;;;;;8285568;28;20060;-73
2023/10/20 15:49:46;;;;;;;0.82;0.60;;;;;;;;;;8274129;28;20560;-73
2023/10/20 15:53:46;;;;;;;1.55;0.40;;;;;;;;;;8290915;28;20029;-74
2023/10/20 15:57:46;;;;;;;1.33;0.70;;;;;;;;;;8295672;28;20029;-74
2023/10/20 16:01:46;;;;;;;2.30;2.10;;;;;;;;;;8273280;28;20202;-72
2023/10/20 16:05:46;;;;;;;7.23;5.77;;;;;;;;;;8289000;28;20029;-73
2023/10/20 16:09:47;;;;;;;3.13;2.60;;;;;;;;;;8290994;28;20108;-72
2023/10/20 16:13:47;;;;;;;1.80;1.70;;;;;;;;;;8288227;28;20859;-73
2023/10/20 16:17:50;;;;;;;1.90;1.80;;;;;;;;;;8272862;28;20043;-74
2023/10/20 16:21:50;;;;;;;9.40;5.80;;;;;;;;;;8290184;28;20036;-75
2023/10/20 16:25:50;;;;;;;2.03;1.90;;;;;;;;;;8288921;28;20020;-74
2023/10/20 16:29:50;;;;;;;6.25;4.88;;;;;;;;;;8289837;28;20033;-74
2023/10/20 16:33:51;;;;;;;6.18;3.00;;;;;;;;;;8287769;28;20119;-74
2023/10/20 16:37:52;;;;;;;8.15;6.05;;;;;;;;;;8289343;28;20044;-74
2023/10/20 16:41:52;;;;;;;6.15;3.40;;;;;;;;;;8288826;28;20025;-73
2023/10/20 16:45:52;;;;;;;6.18;4.20;;;;;;;;;;8271488;28;20550;-74
2023/10/20 16:49:52;;;;;;;7.38;3.50;;;;;;;;;;8287280;28;20032;-73
2023/10/20 16:53:53;;;;;;;4.82;3.05;;;;;;;;;;8286966;28;20028;-73
2023/10/20 16:57:53;;;;;;;4.28;2.80;;;;;;;;;;8287453;28;21054;-74
2023/10/20 17:01:53;;;;;;;4.70;3.63;;;;;;;;;;8288611;28;20040;-74
2023/10/20 17:05:53;;;;;;;3.65;2.60;;;;;;;;;;8284855;28;20322;-73
2023/10/20 17:09:53;;;;;;;1.27;1.17;;;;;;;;;;8286437;28;20055;-74
2023/10/20 17:13:54;;;;;;;7.68;3.30;;;;;;;;;;8274648;28;20160;-73
2023/10/20 17:17:54;;;;;;;7.05;3.17;;;;;;;;;;8267578;28;20096;-74
2023/10/20 17:21:54;;;;;;;2.78;1.75;;;;;;;;;;8269614;28;20154;-74
2023/10/20 17:25:54;;;;;;;1.58;1.40;;;;;;;;;;8289115;28;20061;-74
2023/10/20 17:29:55;;;;;;;2.37;1.40;;;;;;;;;;8284438;28;20071;-74
2023/10/20 17:33:56;;;;;;;1.67;1.30;;;;;;;;;;8283769;28;20838;-74
2023/10/20 17:37:57;;;;;;;2.83;1.70;;;;;;;;;;8290770;28;21375;-74
2023/10/20 17:41:57;;;;;;;1.40;1.30;;;;;;;;;;8275672;28;21085;-73
2023/10/20 17:46:02;;;;;;;2.97;1.97;;;;;;;;;;8287380;28;20125;-74
2023/10/20 17:50:02;;;;;;;1.27;1.20;;;;;;;;;;8269533;28;20280;-74
2023/10/20 17:54:02;;;;;;;3.03;1.60;;;;;;;;;;8289383;28;20099;-73
2023/10/20 17:58:03;;;;;;;1.63;0.97;;;;;;;;;;8287982;28;20057;-74
2023/10/20 18:02:03;;;;;;;1.10;1.10;;;;;;;;;;8286517;28;20286;-73
2023/10/20 18:06:08;;;;;;;2.80;1.17;;;;;;;;;;8268014;28;20033;-74
2023/10/20 18:10:08;;;;;;;0.82;0.82;;;;;;;;;;8285726;28;20091;-74
2023/10/20 18:14:09;;;;;;;0.80;0.80;;;;;;;;;;8286931;28;20494;-73
2023/10/20 18:18:09;;;;;;;0.70;0.70;;;;;;;;;;8283686;28;20902;-72
2023/10/20 18:22:10;;;;;;;0.90;0.90;;;;;;;;;;8271978;28;20025;-74
2023/10/20 18:26:11;;;;;;;1.17;0.70;;;;;;;;;;8284591;28;20152;-74
2023/10/20 18:30:12;;;;;;;1.38;0.88;;;;;;;;;;8283837;28;21150;-74
2023/10/20 18:34:12;;;;;;;0.88;0.70;;;;;;;;;;8283195;28;20166;-73
2023/10/20 18:38:13;;;;;;;2.10;1.20;;;;;;;;;;8284078;28;20025;-73
2023/10/20 18:42:13;;;;;;;2.28;1.40;;;;;;;;;;8267942;28;20029;-72
2023/10/20 18:46:13;;;;;;;3.20;2.72;;;;;;;;;;8265451;28;20029;-73
2023/10/20 18:50:14;;;;;;;4.57;3.30;;;;;;;;;;8283542;28;20036;-73
2023/10/20 18:54:14;;;;;;;1.77;1.65;;;;;;;;;;8282742;28;20107;-72
2023/10/20 18:58:14;;;;;;;2.92;1.55;;;;;;;;;;8281049;28;20107;-73
2023/10/20 19:02:14;;;;;;;2.28;1.67;;;;;;;;;;8281117;28;20888;-73
2023/10/20 19:06:15;;;;;;;2.08;1.50;;;;;;;;;;8281695;28;20568;-73
2023/10/20 19:10:16;;;;;;;3.88;1.30;;;;;;;;;;8280242;28;20148;-73
2023/10/20 19:14:17;;;;;;;1.25;1.15;;;;;;;;;;8268201;28;20040;-73
2023/10/20 19:18:17;;;;;;;2.15;1.10;;;;;;;;;;8281521;28;20817;-73
2023/10/20 19:22:17;;;;;;;0.60;0.60;;;;;;;;;;8282953;28;20034;-73
2023/10/20 19:26:17;;;;;;;1.00;0.80;;;;;;;;;;8280992;28;20107;-72
2023/10/20 19:30:17;;;;;;;1.10;1.00;;;;;;;;;;8266057;28;20083;-73
2023/10/20 19:34:18;;;;;;;0.70;0.70;;;;;;;;;;8278094;28;20027;-73
2023/10/20 19:38:18;;;;;;;3.55;0.77;;;;;;;;;;8281938;28;20057;-72
2023/10/20 19:42:18;;;;;;;0.63;0.63;;;;;;;;;;8279393;28;20029;-73
2023/10/20 19:46:18;;;;;;;0.65;0.65;;;;;;;;;;8282272;28;20563;-73
2023/10/20 19:50:18;;;;;;;0.63;0.63;;;;;;;;;;8283718;28;20699;-73
2023/10/20 19:54:18;;;;;;;0.88;0.60;;;;;;;;;;8281608;28;20021;-74
2023/10/20 19:58:20;;;;;;;0.77;0.60;;;;;;;;;;8284239;28;20041;-73
2023/10/20 20:02:20;;;;;;;0.77;0.60;;;;;;;;;;8280746;28;20030;-73
2023/10/20 20:06:21;;;;;;;1.23;0.60;;;;;;;;;;8283710;28;20021;-73
2023/10/20 20:10:21;;;;;;;0.63;0.50;;;;;;;;;;8281729;28;20029;-73
2023/10/20 20:14:21;;;;;;;1.05;0.70;;;;;;;;;;8262468;28;20036;-74
2023/10/20 20:18:22;;;;;;;0.68;0.60;;;;;;;;;;8279806;28;20033;-73
2023/10/20 20:22:22;;;;;;;0.82;0.70;;;;;;;;;;8283464;28;20048;-73
2023/10/20 20:26:22;;;;;;;0.75;0.60;;;;;;;;;;8267027;28;20068;-74
2023/10/20 20:30:22;;;;;;;0.60;0.60;;;;;;;;;;8269658;28;20029;-75
2023/10/20 20:34:22;;;;;;;0.60;0.60;;;;;;;;;;8281647;28;20103;-74
2023/10/20 20:38:23;;;;;;;1.45;0.60;;;;;;;;;;8269562;28;20048;-74
2023/10/20 20:42:23;;;;;;;0.50;0.50;;;;;;;;;;8285833;28;20036;-73
2023/10/20 20:46:25;;;;;;;0.75;0.70;;;;;;;;;;8288522;28;20037;-74
2023/10/20 20:50:25;;;;;;;0.95;0.50;;;;;;;;;;8287636;28;20025;-72
2023/10/20 20:54:25;;;;;;;0.57;0.57;;;;;;;;;;8286943;28;20072;-74
2023/10/20 20:58:25;;;;;;;2.42;0.68;;;;;;;;;;8288388;28;20549;-74
2023/10/20 21:02:26;;;;;;;0.70;0.70;;;;;;;;;;8289579;28;20037;-74
2023/10/20 21:06:27;;;;;;;0.50;0.50;;;;;;;;;;8271059;28;21106;-74
2023/10/20 21:10:30;;;;;;;1.75;0.65;;;;;;;;;;8288919;28;20029;-73
2023/10/20 21:14:30;;;;;;;3.17;0.60;;;;;;;;;;8287763;28;20975;-74
2023/10/20 21:18:31;;;;;;;0.70;0.70;;;;;;;;;;8289744;28;20140;-75
2023/10/20 21:22:31;;;;;;;1.15;0.70;;;;;;;;;;8287174;28;20805;-74
2023/10/20 21:26:31;;;;;;;4.75;0.60;;;;;;;;;;8290892;28;20656;-73
2023/10/20 21:30:34;;;;;;;1.08;0.70;;;;;;;;;;8286942;28;21019;-74
2023/10/20 21:34:34;;;;;;;1.80;1.00;;;;;;;;;;8270691;28;20836;-74
2023/10/20 21:38:34;;;;;;;1.42;1.00;;;;;;;;;;8288096;28;20020;-74
2023/10/20 21:42:36;;;;;;;0.95;0.60;;;;;;;;;;8291163;28;20697;-73
2023/10/20 21:46:38;;;;;;;2.05;1.20;;;;;;;;;;8289795;28;20095;-74
2023/10/20 21:50:38;;;;;;;1.33;0.90;;;;;;;;;;8288081;28;20013;-74
2023/10/20 21:54:38;;;;;;;3.30;1.60;;;;;;;;;;8288746;28;20029;-74
2023/10/20 21:58:38;;;;;;;3.50;2.10;;;;;;;;;;8287802;28;20222;-73
2023/10/20 22:02:38;;;;;;;4.57;2.00;;;;;;;;;;8291646;28;20032;-74
2023/10/20 22:06:39;;;;;;;2.20;2.00;;;;;;;;;;8287924;28;20026;-73
2023/10/20 22:10:39;;;;;;;1.90;1.60;;;;;;;;;;8285457;28;20025;-74
2023/10/20 22:14:39;;;;;;;2.65;1.90;;;;;;;;;;8289588;28;20457;-74
2023/10/20 22:18:39;;;;;;;1.30;1.20;;;;;;;;;;8286115;28;20053;-73
2023/10/20 22:22:40;;;;;;;0.90;0.90;;;;;;;;;;8287291;28;20650;-73
2023/10/20 22:26:40;;;;;;;2.17;1.10;;;;;;;;;;8273302;28;20379;-73
2023/10/20 22:30:40;;;;;;;1.20;1.10;;;;;;;;;;8285199;28;20034;-74
2023/10/20 22:34:40;;;;;;;1.77;1.00;;;;;;;;;;8270165;28;20088;-73
2023/10/20 22:38:40;;;;;;;1.38;0.88;;;;;;;;;;8285517;28;20025;-74
2023/10/20 22:42:40;;;;;;;2.28;0.90;;;;;;;;;;8288387;28;20774;-73
2023/10/20 22:46:41;;;;;;;2.25;1.00;;;;;;;;;;8270637;28;20029;-73
2023/10/20 22:50:41;;;;;;;2.73;1.27;;;;;;;;;;8285553;28;20134;-73
2023/10/20 22:54:41;;;;;;;5.00;1.88;;;;;;;;;;8289425;28;20391;-74
2023/10/20 22:58:41;;;;;;;2.00;1.57;;;;;;;;;;8269719;28;20017;-73
2023/10/20 23:02:42;;;;;;;3.30;2.00;;;;;;;;;;8282607;28;20273;-73
2023/10/20 23:06:42;;;;;;;1.40;1.20;;;;;;;;;;8267364;28;20022;-74
2023/10/20 23:10:42;;;;;;;1.20;1.10;;;;;;;;;;8281954;28;20021;-74
2023/10/20 23:14:42;;;;;;;1.20;1.10;;;;;;;;;;8274535;28;20090;-74
2023/10/20 23:18:46;;;;;;;5.75;1.80;;;;;;;;;;8282724;28;20159;-73
2023/10/20 23:22:46;;;;;;;1.98;1.60;;;;;;;;;;8281917;28;20014;-74
2023/10/20 23:26:47;;;;;;;3.20;1.50;;;;;;;;;;8283085;28;20017;-72
2023/10/20 23:30:48;;;;;;;2.70;1.73;;;;;;;;;;8283137;28;20048;-73
2023/10/20 23:34:48;;;;;;;1.70;1.35;;;;;;;;;;8270209;28;20867;-72
2023/10/20 23:38:48;;;;;;;2.08;1.38;;;;;;;;;;8285981;28;20075;-73
2023/10/20 23:42:48;;;;;;;5.40;1.35;;;;;;;;;;8282444;28;20025;-73
2023/10/20 23:46:48;;;;;;;1.92;0.90;;;;;;;;;;8284753;28;20128;-72
2023/10/20 23:50:49;;;;;;;1.27;0.70;;;;;;;;;;8267927;28;20026;-73
2023/10/20 23:54:52;;;;;;;0.80;0.80;;;;;;;;;;8283111;28;20067;-73
2023/10/20 23:58:52;;;;;;;2.75;1.00;;;;;;;;;;8283362;28;20873;-73
